sensor_id;sensor_type;location;lat;lon;timestamp;pressure;altitude;pressure_sealevel;temperature;humidity
72038;BME280;59900;50.788;12.904;2023-01-08T00:01:51;97006.69;;;7.53;71.54
72038;BME280;59900;50.788;12.904;2023-01-08T00:04:16;97019.59;;;7.54;71.73
72038;BME280;59900;50.788;12.904;2023-01-08T00:06:42;97008.13;;;7.55;71.98
72038;BME280;59900;50.788;12.904;2023-01-08T00:09:09;97002.88;;;7.55;72.17
72038;BME280;59900;50.788;12.904;2023-01-08T00:11:34;96987.56;;;7.52;72.65
72038;BME280;59900;50.788;12.904;2023-01-08T00:13:59;96979.28;;;7.49;73.05
72038;BME280;59900;50.788;12.904;2023-01-08T00:16:24;96983.09;;;7.46;73.39
72038;BME280;59900;50.788;12.904;2023-01-08T00:18:50;96975.63;;;7.43;73.90
72038;BME280;59900;50.788;12.904;2023-01-08T00:21:15;96974.22;;;7.41;73.77
72038;BME280;59900;50.788;12.904;2023-01-08T00:23:40;96958.16;;;7.44;73.01
72038;BME280;59900;50.788;12.904;2023-01-08T00:26:08;96956.97;;;7.46;72.79
72038;BME280;59900;50.788;12.904;2023-01-08T00:28:34;96954.19;;;7.48;72.82
72038;BME280;59900;50.788;12.904;2023-01-08T00:31:02;96953.97;;;7.49;72.48
72038;BME280;59900;50.788;12.904;2023-01-08T00:33:27;96945.75;;;7.52;72.29
72038;BME280;59900;50.788;12.904;2023-01-08T00:35:52;96924.84;;;7.52;72.12
72038;BME280;59900;50.788;12.904;2023-01-08T00:38:17;96924.84;;;7.52;71.81
72038;BME280;59900;50.788;12.904;2023-01-08T00:40:43;96925.25;;;7.56;70.83
72038;BME280;59900;50.788;12.904;2023-01-08T00:43:08;96915.41;;;7.58;70.47
72038;BME280;59900;50.788;12.904;2023-01-08T00:45:33;96919.84;;;7.57;70.75
72038;BME280;59900;50.788;12.904;2023-01-08T00:47:59;96920.47;;;7.59;70.78
72038;BME280;59900;50.788;12.904;2023-01-08T00:50:24;96914.22;;;7.60;70.16
72038;BME280;59900;50.788;12.904;2023-01-08T00:52:50;96909.19;;;7.59;70.68
72038;BME280;59900;50.788;12.904;2023-01-08T00:55:16;96921.44;;;7.58;70.46
72038;BME280;59900;50.788;12.904;2023-01-08T00:57:41;96915.63;;;7.56;70.61
72038;BME280;59900;50.788;12.904;2023-01-08T01:00:09;96926.88;;;7.57;70.41
72038;BME280;59900;50.788;12.904;2023-01-08T01:02:37;96918.63;;;7.53;70.22
72038;BME280;59900;50.788;12.904;2023-01-08T01:05:03;96911.59;;;7.54;70.57
72038;BME280;59900;50.788;12.904;2023-01-08T01:07:29;96909.97;;;7.53;70.04
72038;BME280;59900;50.788;12.904;2023-01-08T01:09:54;96910.53;;;7.48;70.42
72038;BME280;59900;50.788;12.904;2023-01-08T01:12:19;96909.72;;;7.48;70.11
72038;BME280;59900;50.788;12.904;2023-01-08T01:14:44;96908.91;;;7.47;70.28
72038;BME280;59900;50.788;12.904;2023-01-08T01:17:11;96909.91;;;7.46;70.20
72038;BME280;59900;50.788;12.904;2023-01-08T01:19:36;96911.91;;;7.44;70.28
72038;BME280;59900;50.788;12.904;2023-01-08T01:22:01;96915.72;;;7.42;70.57
72038;BME280;59900;50.788;12.904;2023-01-08T01:24:27;96924.75;;;7.39;70.14
72038;BME280;59900;50.788;12.904;2023-01-08T01:26:52;96933.78;;;7.37;70.19
72038;BME280;59900;50.788;12.904;2023-01-08T01:29:17;96926.50;;;7.32;70.22
72038;BME280;59900;50.788;12.904;2023-01-08T01:31:42;96931.50;;;7.27;69.87
72038;BME280;59900;50.788;12.904;2023-01-08T01:34:09;96930.31;;;7.29;70.29
72038;BME280;59900;50.788;12.904;2023-01-08T01:36:35;96930.47;;;7.28;70.12
72038;BME280;59900;50.788;12.904;2023-01-08T01:39:00;96921.88;;;7.27;70.00
72038;BME280;59900;50.788;12.904;2023-01-08T01:41:28;96927.25;;;7.26;69.87
72038;BME280;59900;50.788;12.904;2023-01-08T01:43:57;96930.69;;;7.26;70.08
72038;BME280;59900;50.788;12.904;2023-01-08T01:46:38;96921.00;;;7.20;70.31
72038;BME280;59900;50.788;12.904;2023-01-08T01:49:17;96911.13;;;7.16;70.31
72038;BME280;59900;50.788;12.904;2023-01-08T01:51:47;96909.50;;;7.15;70.15
72038;BME280;59900;50.788;12.904;2023-01-08T01:54:13;96913.09;;;7.14;70.60
72038;BME280;59900;50.788;12.904;2023-01-08T01:56:39;96907.25;;;7.12;70.44
72038;BME280;59900;50.788;12.904;2023-01-08T01:59:05;96904.22;;;7.08;70.27
72038;BME280;59900;50.788;12.904;2023-01-08T02:01:31;96907.03;;;7.07;70.53
72038;BME280;59900;50.788;12.904;2023-01-08T02:03:57;96903.00;;;7.04;70.21
72038;BME280;59900;50.788;12.904;2023-01-08T02:06:37;96905.16;;;7.01;70.38
72038;BME280;59900;50.788;12.904;2023-01-08T02:09:13;96897.88;;;6.96;70.54
72038;BME280;59900;50.788;12.904;2023-01-08T02:12:04;96895.03;;;6.91;70.98
72038;BME280;59900;50.788;12.904;2023-01-08T02:17:28;96895.19;;;6.83;71.77
72038;BME280;59900;50.788;12.904;2023-01-08T02:20:05;96895.19;;;6.83;71.85
72038;BME280;59900;50.788;12.904;2023-01-08T02:22:45;96894.28;;;6.76;72.30
72038;BME280;59900;50.788;12.904;2023-01-08T02:25:55;96892.44;;;6.70;72.93
72038;BME280;59900;50.788;12.904;2023-01-08T02:28:25;96892.63;;;6.68;72.72
72038;BME280;59900;50.788;12.904;2023-01-08T02:30:53;96886.16;;;6.64;72.84
72038;BME280;59900;50.788;12.904;2023-01-08T02:33:19;96885.34;;;6.64;72.95
72038;BME280;59900;50.788;12.904;2023-01-08T02:35:51;96881.13;;;6.63;72.44
72038;BME280;59900;50.788;12.904;2023-01-08T02:38:16;96871.69;;;6.62;72.70
72038;BME280;59900;50.788;12.904;2023-01-08T02:40:56;96868.09;;;6.63;72.12
72038;BME280;59900;50.788;12.904;2023-01-08T02:43:31;96873.31;;;6.63;72.48
72038;BME280;59900;50.788;12.904;2023-01-08T02:46:00;96869.88;;;6.62;72.30
72038;BME280;59900;50.788;12.904;2023-01-08T02:48:38;96870.69;;;6.63;72.32
72038;BME280;59900;50.788;12.904;2023-01-08T02:51:27;96869.28;;;6.60;72.68
72038;BME280;59900;50.788;12.904;2023-01-08T02:53:57;96873.25;;;6.56;72.51
72038;BME280;59900;50.788;12.904;2023-01-08T02:56:27;96873.03;;;6.58;72.21
72038;BME280;59900;50.788;12.904;2023-01-08T02:58:55;96864.44;;;6.57;72.21
72038;BME280;59900;50.788;12.904;2023-01-08T03:01:23;96860.63;;;6.60;72.43
72038;BME280;59900;50.788;12.904;2023-01-08T03:03:56;96871.09;;;6.66;71.97
72038;BME280;59900;50.788;12.904;2023-01-08T03:06:24;96863.53;;;6.71;71.50
72038;BME280;59900;50.788;12.904;2023-01-08T03:08:51;96853.94;;;6.78;70.88
72038;BME280;59900;50.788;12.904;2023-01-08T03:11:20;96846.78;;;6.87;71.20
72038;BME280;59900;50.788;12.904;2023-01-08T03:16:35;96828.22;;;7.03;69.99
72038;BME280;59900;50.788;12.904;2023-01-08T03:19:14;96830.06;;;7.09;69.87
72038;BME280;59900;50.788;12.904;2023-01-08T03:21:41;96825.88;;;7.15;69.40
72038;BME280;59900;50.788;12.904;2023-01-08T03:24:12;96835.56;;;7.21;69.90
72038;BME280;59900;50.788;12.904;2023-01-08T03:26:39;96831.78;;;7.23;69.15
72038;BME280;59900;50.788;12.904;2023-01-08T03:29:10;96829.59;;;7.27;68.95
72038;BME280;59900;50.788;12.904;2023-01-08T03:31:39;96835.03;;;7.32;68.66
72038;BME280;59900;50.788;12.904;2023-01-08T03:34:05;96822.19;;;7.37;67.71
72038;BME280;59900;50.788;12.904;2023-01-08T03:36:31;96816.41;;;7.42;67.75
72038;BME280;59900;50.788;12.904;2023-01-08T03:39:21;96808.59;;;7.48;67.37
72038;BME280;59900;50.788;12.904;2023-01-08T03:41:48;96801.34;;;7.50;67.20
72038;BME280;59900;50.788;12.904;2023-01-08T03:44:14;96799.97;;;7.54;67.09
72038;BME280;59900;50.788;12.904;2023-01-08T03:46:44;96810.03;;;7.57;66.68
72038;BME280;59900;50.788;12.904;2023-01-08T03:49:11;96805.03;;;7.62;66.70
72038;BME280;59900;50.788;12.904;2023-01-08T03:51:40;96815.28;;;7.64;66.82
72038;BME280;59900;50.788;12.904;2023-01-08T03:54:08;96812.66;;;7.64;66.86
72038;BME280;59900;50.788;12.904;2023-01-08T03:56:35;96817.91;;;7.64;66.56
72038;BME280;59900;50.788;12.904;2023-01-08T03:59:00;96820.31;;;7.65;66.94
72038;BME280;59900;50.788;12.904;2023-01-08T04:01:25;96821.31;;;7.64;66.92
72038;BME280;59900;50.788;12.904;2023-01-08T04:03:50;96819.09;;;7.61;67.09
72038;BME280;59900;50.788;12.904;2023-01-08T04:06:16;96810.03;;;7.57;67.15
72038;BME280;59900;50.788;12.904;2023-01-08T04:08:41;96812.63;;;7.51;67.78
72038;BME280;59900;50.788;12.904;2023-01-08T04:11:06;96822.81;;;7.46;67.81
72038;BME280;59900;50.788;12.904;2023-01-08T04:13:31;96812.59;;;7.44;67.73
72038;BME280;59900;50.788;12.904;2023-01-08T04:15:57;96819.81;;;7.42;67.78
72038;BME280;59900;50.788;12.904;2023-01-08T04:18:22;96834.88;;;7.40;67.79
72038;BME280;59900;50.788;12.904;2023-01-08T04:20:47;96831.84;;;7.37;67.95
72038;BME280;59900;50.788;12.904;2023-01-08T04:23:13;96822.41;;;7.36;67.85
72038;BME280;59900;50.788;12.904;2023-01-08T04:25:38;96816.56;;;7.33;68.31
72038;BME280;59900;50.788;12.904;2023-01-08T04:28:03;96820.53;;;7.29;68.27
72038;BME280;59900;50.788;12.904;2023-01-08T04:30:29;96826.16;;;7.26;68.50
72038;BME280;59900;50.788;12.904;2023-01-08T04:32:54;96815.91;;;7.25;68.45
72038;BME280;59900;50.788;12.904;2023-01-08T04:35:19;96809.06;;;7.24;68.59
72038;BME280;59900;50.788;12.904;2023-01-08T04:37:44;96817.47;;;7.19;68.48
72038;BME280;59900;50.788;12.904;2023-01-08T04:40:10;96824.75;;;7.24;68.42
72038;BME280;59900;50.788;12.904;2023-01-08T04:42:35;96797.41;;;7.26;68.34
72038;BME280;59900;50.788;12.904;2023-01-08T04:45:00;96820.72;;;7.28;68.32
72038;BME280;59900;50.788;12.904;2023-01-08T04:47:25;96810.91;;;7.30;68.25
72038;BME280;59900;50.788;12.904;2023-01-08T04:49:51;96819.34;;;7.32;68.71
72038;BME280;59900;50.788;12.904;2023-01-08T04:52:16;96817.34;;;7.34;68.45
72038;BME280;59900;50.788;12.904;2023-01-08T04:54:41;96828.00;;;7.32;68.39
72038;BME280;59900;50.788;12.904;2023-01-08T04:57:06;96818.97;;;7.35;68.36
72038;BME280;59900;50.788;12.904;2023-01-08T04:59:31;96823.81;;;7.38;68.47
72038;BME280;59900;50.788;12.904;2023-01-08T05:01:57;96826.41;;;7.38;68.41
72038;BME280;59900;50.788;12.904;2023-01-08T05:04:23;96801.28;;;7.37;68.86
72038;BME280;59900;50.788;12.904;2023-01-08T05:06:48;96796.03;;;7.37;68.49
72038;BME280;59900;50.788;12.904;2023-01-08T05:09:13;96796.44;;;7.34;68.73
72038;BME280;59900;50.788;12.904;2023-01-08T05:11:38;96801.25;;;7.30;68.80
72038;BME280;59900;50.788;12.904;2023-01-08T05:14:04;96796.22;;;7.29;68.82
72038;BME280;59900;50.788;12.904;2023-01-08T05:16:29;96785.34;;;7.25;69.12
72038;BME280;59900;50.788;12.904;2023-01-08T05:18:56;96787.16;;;7.25;69.22
72038;BME280;59900;50.788;12.904;2023-01-08T05:21:21;96790.94;;;7.22;69.39
72038;BME280;59900;50.788;12.904;2023-01-08T05:23:46;96779.72;;;7.22;69.37
72038;BME280;59900;50.788;12.904;2023-01-08T05:26:15;96778.69;;;7.23;69.63
72038;BME280;59900;50.788;12.904;2023-01-08T05:28:41;96771.25;;;7.20;69.83
72038;BME280;59900;50.788;12.904;2023-01-08T05:31:07;96771.44;;;7.18;69.73
72038;BME280;59900;50.788;12.904;2023-01-08T05:33:32;96772.25;;;7.19;69.89
72038;BME280;59900;50.788;12.904;2023-01-08T05:35:57;96766.66;;;7.22;70.17
72038;BME280;59900;50.788;12.904;2023-01-08T05:38:22;96758.19;;;7.20;69.99
72038;BME280;59900;50.788;12.904;2023-01-08T05:40:51;96768.63;;;7.20;69.88
72038;BME280;59900;50.788;12.904;2023-01-08T05:43:16;96765.84;;;7.21;69.91
72038;BME280;59900;50.788;12.904;2023-01-08T05:45:41;96756.19;;;7.22;69.84
72038;BME280;59900;50.788;12.904;2023-01-08T05:48:07;96754.56;;;7.21;70.39
72038;BME280;59900;50.788;12.904;2023-01-08T05:50:32;96758.59;;;7.23;69.90
72038;BME280;59900;50.788;12.904;2023-01-08T05:52:58;96760.41;;;7.23;70.29
72038;BME280;59900;50.788;12.904;2023-01-08T05:55:23;96758.59;;;7.23;70.13
72038;BME280;59900;50.788;12.904;2023-01-08T05:57:48;96754.19;;;7.24;70.47
72038;BME280;59900;50.788;12.904;2023-01-08T06:00:14;96760.22;;;7.24;70.25
72038;BME280;59900;50.788;12.904;2023-01-08T06:02:44;96770.47;;;7.26;70.43
72038;BME280;59900;50.788;12.904;2023-01-08T06:05:10;96761.59;;;7.20;70.39
72038;BME280;59900;50.788;12.904;2023-01-08T06:07:35;96766.59;;;7.15;70.49
72038;BME280;59900;50.788;12.904;2023-01-08T06:10:00;96767.59;;;7.14;70.52
72038;BME280;59900;50.788;12.904;2023-01-08T06:12:26;96771.41;;;7.12;70.84
72038;BME280;59900;50.788;12.904;2023-01-08T06:14:51;96776.03;;;7.10;70.74
72038;BME280;59900;50.788;12.904;2023-01-08T06:17:16;96778.63;;;7.10;70.82
72038;BME280;59900;50.788;12.904;2023-01-08T06:19:41;96775.81;;;7.11;70.59
72038;BME280;59900;50.788;12.904;2023-01-08T06:22:07;96773.03;;;7.13;71.16
72038;BME280;59900;50.788;12.904;2023-01-08T06:24:32;96777.06;;;7.15;71.06
72038;BME280;59900;50.788;12.904;2023-01-08T06:26:57;96784.09;;;7.15;70.85
72038;BME280;59900;50.788;12.904;2023-01-08T06:29:22;96775.44;;;7.14;71.13
72038;BME280;59900;50.788;12.904;2023-01-08T06:31:48;96780.06;;;7.12;70.82
72038;BME280;59900;50.788;12.904;2023-01-08T06:34:13;96787.09;;;7.12;71.27
72038;BME280;59900;50.788;12.904;2023-01-08T06:36:38;96785.28;;;7.12;71.00
72038;BME280;59900;50.788;12.904;2023-01-08T06:39:05;96793.94;;;7.13;70.95
72038;BME280;59900;50.788;12.904;2023-01-08T06:41:30;96796.34;;;7.14;71.29
72038;BME280;59900;50.788;12.904;2023-01-08T06:43:56;96788.31;;;7.16;71.42
72038;BME280;59900;50.788;12.904;2023-01-08T06:46:21;96788.50;;;7.14;71.59
72038;BME280;59900;50.788;12.904;2023-01-08T06:48:46;96798.13;;;7.14;71.60
72038;BME280;59900;50.788;12.904;2023-01-08T06:51:11;96792.91;;;7.14;71.71
72038;BME280;59900;50.788;12.904;2023-01-08T06:53:37;96792.72;;;7.15;71.83
72038;BME280;59900;50.788;12.904;2023-01-08T06:56:02;96783.69;;;7.18;71.61
72038;BME280;59900;50.788;12.904;2023-01-08T06:58:28;96793.56;;;7.22;71.88
72038;BME280;59900;50.788;12.904;2023-01-08T07:00:54;96788.72;;;7.19;71.84
72038;BME280;59900;50.788;12.904;2023-01-08T07:03:19;96792.78;;;7.22;71.70
72038;BME280;59900;50.788;12.904;2023-01-08T07:05:44;96796.81;;;7.24;72.10
72038;BME280;59900;50.788;12.904;2023-01-08T07:08:13;96793.16;;;7.25;71.92
72038;BME280;59900;50.788;12.904;2023-01-08T07:10:39;96801.66;;;7.27;72.05
72038;BME280;59900;50.788;12.904;2023-01-08T07:13:04;96810.53;;;7.33;72.85
72038;BME280;59900;50.788;12.904;2023-01-08T07:15:31;96800.06;;;7.33;72.38
72038;BME280;59900;50.788;12.904;2023-01-08T07:17:57;96798.47;;;7.39;73.24
72038;BME280;59900;50.788;12.904;2023-01-08T07:20:22;96788.06;;;7.45;72.90
72038;BME280;59900;50.788;12.904;2023-01-08T07:22:47;96783.22;;;7.49;72.47
72038;BME280;59900;50.788;12.904;2023-01-08T07:25:15;96786.28;;;7.52;72.56
72038;BME280;59900;50.788;12.904;2023-01-08T07:27:41;96782.47;;;7.55;72.54
72038;BME280;59900;50.788;12.904;2023-01-08T07:30:06;96780.88;;;7.54;72.24
72038;BME280;59900;50.788;12.904;2023-01-08T07:32:32;96780.44;;;7.50;72.11
72038;BME280;59900;50.788;12.904;2023-01-08T07:34:57;96776.19;;;7.49;72.21
72038;BME280;59900;50.788;12.904;2023-01-08T07:37:23;96772.00;;;7.48;72.22
72038;BME280;59900;50.788;12.904;2023-01-08T07:39:48;96774.59;;;7.48;72.10
72038;BME280;59900;50.788;12.904;2023-01-08T07:42:14;96766.75;;;7.48;72.17
72038;BME280;59900;50.788;12.904;2023-01-08T07:44:39;96760.31;;;7.44;72.21
72038;BME280;59900;50.788;12.904;2023-01-08T07:47:04;96761.50;;;7.42;72.02
72038;BME280;59900;50.788;12.904;2023-01-08T07:49:29;96754.66;;;7.41;71.96
72038;BME280;59900;50.788;12.904;2023-01-08T07:51:55;96759.66;;;7.36;72.42
72038;BME280;59900;50.788;12.904;2023-01-08T07:54:20;96759.25;;;7.32;72.51
72038;BME280;59900;50.788;12.904;2023-01-08T07:56:45;96759.84;;;7.34;72.61
72038;BME280;59900;50.788;12.904;2023-01-08T07:59:10;96746.38;;;7.30;72.57
72038;BME280;59900;50.788;12.904;2023-01-08T08:01:36;96732.50;;;7.30;72.66
72038;BME280;59900;50.788;12.904;2023-01-08T08:04:01;96730.88;;;7.29;72.97
72038;BME280;59900;50.788;12.904;2023-01-08T08:06:26;96727.47;;;7.28;73.32
72038;BME280;59900;50.788;12.904;2023-01-08T08:08:51;96734.47;;;7.28;73.30
72038;BME280;59900;50.788;12.904;2023-01-08T08:11:17;96734.47;;;7.28;73.39
72038;BME280;59900;50.788;12.904;2023-01-08T08:13:42;96741.53;;;7.27;73.36
72038;BME280;59900;50.788;12.904;2023-01-08T08:16:09;96725.44;;;7.24;72.94
72038;BME280;59900;50.788;12.904;2023-01-08T08:18:35;96728.06;;;7.24;73.00
72038;BME280;59900;50.788;12.904;2023-01-08T08:21:00;96726.81;;;7.20;73.16
72038;BME280;59900;50.788;12.904;2023-01-08T08:23:25;96732.03;;;7.20;73.23
72038;BME280;59900;50.788;12.904;2023-01-08T08:25:51;96729.25;;;7.21;73.18
72038;BME280;59900;50.788;12.904;2023-01-08T08:28:17;96732.69;;;7.22;73.20
72038;BME280;59900;50.788;12.904;2023-01-08T08:30:42;96731.66;;;7.23;73.47
72038;BME280;59900;50.788;12.904;2023-01-08T08:33:08;96733.28;;;7.24;73.27
72038;BME280;59900;50.788;12.904;2023-01-08T08:35:34;96720.00;;;7.19;73.37
72038;BME280;59900;50.788;12.904;2023-01-08T08:37:59;96731.06;;;7.21;73.20
72038;BME280;59900;50.788;12.904;2023-01-08T08:40:25;96724.00;;;7.15;73.16
72038;BME280;59900;50.788;12.904;2023-01-08T08:42:57;96711.53;;;7.10;73.40
72038;BME280;59900;50.788;12.904;2023-01-08T08:45:23;96704.28;;;7.12;73.87
72038;BME280;59900;50.788;12.904;2023-01-08T08:47:48;96697.25;;;7.13;73.38
72038;BME280;59900;50.788;12.904;2023-01-08T08:50:13;96703.47;;;7.12;73.82
72038;BME280;59900;50.788;12.904;2023-01-08T08:52:39;96702.88;;;7.16;73.74
72038;BME280;59900;50.788;12.904;2023-01-08T08:55:04;96702.69;;;7.18;73.52
72038;BME280;59900;50.788;12.904;2023-01-08T08:57:30;96699.88;;;7.19;73.16
72038;BME280;59900;50.788;12.904;2023-01-08T08:59:56;96695.88;;;7.23;73.66
72038;BME280;59900;50.788;12.904;2023-01-08T09:02:21;96699.09;;;7.25;73.17
72038;BME280;59900;50.788;12.904;2023-01-08T09:04:46;96701.16;;;7.30;73.37
72038;BME280;59900;50.788;12.904;2023-01-08T09:07:11;96696.09;;;7.28;73.18
72038;BME280;59900;50.788;12.904;2023-01-08T09:09:37;96688.06;;;7.30;73.31
72038;BME280;59900;50.788;12.904;2023-01-08T09:12:02;96684.88;;;7.34;73.31
72038;BME280;59900;50.788;12.904;2023-01-08T09:14:28;96689.91;;;7.36;73.03
72038;BME280;59900;50.788;12.904;2023-01-08T09:16:53;96690.94;;;7.42;73.96
72038;BME280;59900;50.788;12.904;2023-01-08T09:19:18;96688.13;;;7.50;73.69
72038;BME280;59900;50.788;12.904;2023-01-08T09:21:43;96692.16;;;7.52;72.95
72038;BME280;59900;50.788;12.904;2023-01-08T09:24:09;96697.38;;;7.52;72.74
72038;BME280;59900;50.788;12.904;2023-01-08T09:26:34;96700.38;;;7.49;72.24
72038;BME280;59900;50.788;12.904;2023-01-08T09:28:59;96703.00;;;7.49;72.36
72038;BME280;59900;50.788;12.904;2023-01-08T09:31:25;96708.06;;;7.51;72.53
72038;BME280;59900;50.788;12.904;2023-01-08T09:33:51;96712.88;;;7.54;72.55
72038;BME280;59900;50.788;12.904;2023-01-08T09:36:17;96717.09;;;7.55;72.62
72038;BME280;59900;50.788;12.904;2023-01-08T09:38:42;96709.50;;;7.60;73.08
72038;BME280;59900;50.788;12.904;2023-01-08T09:43:41;96714.72;;;7.66;71.96
72038;BME280;59900;50.788;12.904;2023-01-08T09:46:11;96705.47;;;7.70;72.18
72038;BME280;59900;50.788;12.904;2023-01-08T09:48:38;96704.28;;;7.73;71.83
72038;BME280;59900;50.788;12.904;2023-01-08T09:51:09;96696.44;;;7.79;72.23
72038;BME280;59900;50.788;12.904;2023-01-08T09:53:36;96698.69;;;7.89;71.64
72038;BME280;59900;50.788;12.904;2023-01-08T09:56:04;96704.72;;;7.96;71.53
72038;BME280;59900;50.788;12.904;2023-01-08T09:58:38;96696.69;;;8.04;71.59
72038;BME280;59900;50.788;12.904;2023-01-08T10:01:04;96701.31;;;8.09;71.19
72038;BME280;59900;50.788;12.904;2023-01-08T10:03:40;96711.97;;;8.14;71.19
72038;BME280;59900;50.788;12.904;2023-01-08T10:06:11;96715.81;;;8.18;70.48
72038;BME280;59900;50.788;12.904;2023-01-08T10:08:36;96707.56;;;8.21;70.29
72038;BME280;59900;50.788;12.904;2023-01-08T10:11:03;96703.34;;;8.26;70.49
72038;BME280;59900;50.788;12.904;2023-01-08T10:13:29;96693.09;;;8.31;70.70
72038;BME280;59900;50.788;12.904;2023-01-08T10:15:54;96690.28;;;8.39;70.17
72038;BME280;59900;50.788;12.904;2023-01-08T10:18:22;96687.44;;;8.41;70.19
72038;BME280;59900;50.788;12.904;2023-01-08T10:20:49;96676.75;;;8.42;69.37
72038;BME280;59900;50.788;12.904;2023-01-08T10:23:17;96671.75;;;8.48;69.39
72038;BME280;59900;50.788;12.904;2023-01-08T10:28:19;96668.91;;;8.56;69.09
72038;BME280;59900;50.788;12.904;2023-01-08T10:30:45;96661.63;;;8.58;68.55
72038;BME280;59900;50.788;12.904;2023-01-08T10:33:17;96666.69;;;8.59;68.48
72038;BME280;59900;50.788;12.904;2023-01-08T10:35:51;96649.94;;;8.60;67.82
72038;BME280;59900;50.788;12.904;2023-01-08T10:38:26;96670.72;;;8.62;67.88
72038;BME280;59900;50.788;12.904;2023-01-08T10:40:52;96667.88;;;8.63;68.20
72038;BME280;59900;50.788;12.904;2023-01-08T10:43:21;96656.41;;;8.64;67.89
72038;BME280;59900;50.788;12.904;2023-01-08T10:45:59;96661.44;;;8.59;68.05
72038;BME280;59900;50.788;12.904;2023-01-08T10:48:36;96662.25;;;8.60;68.12
72038;BME280;59900;50.788;12.904;2023-01-08T10:51:13;96654.59;;;8.58;68.47
72038;BME280;59900;50.788;12.904;2023-01-08T10:53:39;96647.72;;;8.57;68.61
72038;BME280;59900;50.788;12.904;2023-01-08T10:56:05;96663.44;;;8.64;69.53
72038;BME280;59900;50.788;12.904;2023-01-08T10:58:41;96648.72;;;8.69;69.00
72038;BME280;59900;50.788;12.904;2023-01-08T11:01:14;96670.47;;;8.63;68.39
72038;BME280;59900;50.788;12.904;2023-01-08T11:03:40;96666.50;;;8.54;68.51
72038;BME280;59900;50.788;12.904;2023-01-08T11:06:16;96655.22;;;8.40;69.02
72038;BME280;59900;50.788;12.904;2023-01-08T11:08:52;96653.00;;;8.44;69.15
72038;BME280;59900;50.788;12.904;2023-01-08T11:11:18;96639.31;;;8.42;69.33
72038;BME280;59900;50.788;12.904;2023-01-08T11:13:54;96645.56;;;8.41;69.35
72038;BME280;59900;50.788;12.904;2023-01-08T11:16:20;96627.47;;;8.39;69.42
72038;BME280;59900;50.788;12.904;2023-01-08T11:18:49;96630.84;;;8.40;69.17
72038;BME280;59900;50.788;12.904;2023-01-08T11:21:19;96626.03;;;8.37;69.15
72038;BME280;59900;50.788;12.904;2023-01-08T11:23:44;96621.41;;;8.32;69.21
72038;BME280;59900;50.788;12.904;2023-01-08T11:26:14;96617.38;;;8.36;69.42
72038;BME280;59900;50.788;12.904;2023-01-08T11:34:09;96626.25;;;8.42;69.56
72038;BME280;59900;50.788;12.904;2023-01-08T11:36:55;96629.03;;;8.40;69.51
72038;BME280;59900;50.788;12.904;2023-01-08T11:39:24;96615.53;;;8.43;69.33
72038;BME280;59900;50.788;12.904;2023-01-08T11:44:41;96588.38;;;8.44;69.77
72038;BME280;59900;50.788;12.904;2023-01-08T11:47:15;96580.09;;;8.48;69.80
72038;BME280;59900;50.788;12.904;2023-01-08T11:50:39;96582.31;;;8.51;69.85
72038;BME280;59900;50.788;12.904;2023-01-08T11:53:20;96578.88;;;8.50;69.80
72038;BME280;59900;50.788;12.904;2023-01-08T11:55:54;96578.25;;;8.55;69.64
72038;BME280;59900;50.788;12.904;2023-01-08T11:58:42;96573.22;;;8.53;70.31
72038;BME280;59900;50.788;12.904;2023-01-08T12:01:39;96578.66;;;8.58;70.10
72038;BME280;59900;50.788;12.904;2023-01-08T12:09:43;96563.13;;;8.63;70.53
72038;BME280;59900;50.788;12.904;2023-01-08T12:12:34;96567.94;;;8.66;70.71
72038;BME280;59900;50.788;12.904;2023-01-08T12:15:30;96559.25;;;8.72;70.72
72038;BME280;59900;50.788;12.904;2023-01-08T12:19:01;96572.56;;;8.77;70.69
72038;BME280;59900;50.788;12.904;2023-01-08T12:21:28;96572.72;;;8.82;70.54
72038;BME280;59900;50.788;12.904;2023-01-08T12:24:34;96566.84;;;8.87;70.56
72038;BME280;59900;50.788;12.904;2023-01-08T12:27:04;96568.06;;;8.91;71.03
72038;BME280;59900;50.788;12.904;2023-01-08T12:32:19;96580.16;;;8.85;72.06
72038;BME280;59900;50.788;12.904;2023-01-08T12:35:00;96571.91;;;8.88;72.37
72038;BME280;59900;50.788;12.904;2023-01-08T12:37:33;96568.84;;;8.91;72.43
72038;BME280;59900;50.788;12.904;2023-01-08T12:40:13;96563.38;;;8.93;72.54
72038;BME280;59900;50.788;12.904;2023-01-08T12:42:42;96559.78;;;8.87;72.60
72038;BME280;59900;50.788;12.904;2023-01-08T12:45:29;96567.06;;;8.85;72.64
72038;BME280;59900;50.788;12.904;2023-01-08T12:48:00;96565.69;;;8.83;73.47
72038;BME280;59900;50.788;12.904;2023-01-08T12:50:37;96563.88;;;8.83;73.00
72038;BME280;59900;50.788;12.904;2023-01-08T12:53:25;96555.59;;;8.80;73.37
72038;BME280;59900;50.788;12.904;2023-01-08T12:56:07;96555.19;;;8.83;72.86
72038;BME280;59900;50.788;12.904;2023-01-08T12:58:47;96553.38;;;8.83;72.63
72038;BME280;59900;50.788;12.904;2023-01-08T13:01:35;96551.97;;;8.81;72.80
72038;BME280;59900;50.788;12.904;2023-01-08T13:04:02;96551.75;;;8.82;72.82
72038;BME280;59900;50.788;12.904;2023-01-08T13:06:29;96544.06;;;8.87;73.02
72038;BME280;59900;50.788;12.904;2023-01-08T13:08:56;96544.47;;;8.91;72.93
72038;BME280;59900;50.788;12.904;2023-01-08T13:11:28;96532.97;;;8.92;72.77
72038;BME280;59900;50.788;12.904;2023-01-08T13:14:07;96528.75;;;8.91;73.05
72038;BME280;59900;50.788;12.904;2023-01-08T13:16:40;96532.38;;;8.90;72.69
72038;BME280;59900;50.788;12.904;2023-01-08T13:19:22;96532.00;;;8.86;73.03
72038;BME280;59900;50.788;12.904;2023-01-08T13:21:53;96534.63;;;8.86;72.98
72038;BME280;59900;50.788;12.904;2023-01-08T13:26:54;96533.41;;;8.89;72.51
72038;BME280;59900;50.788;12.904;2023-01-08T13:29:47;96523.50;;;8.91;72.67
72038;BME280;59900;50.788;12.904;2023-01-08T13:32:45;96522.91;;;8.89;72.35
72038;BME280;59900;50.788;12.904;2023-01-08T13:37:38;96503.56;;;8.90;72.49
72038;BME280;59900;50.788;12.904;2023-01-08T13:40:03;96500.94;;;8.90;72.25
72038;BME280;59900;50.788;12.904;2023-01-08T13:42:32;96507.41;;;8.87;72.25